createdAt,value
2023-04-18T00:01:45.663Z,10.13
2023-04-18T00:04:14.432Z,9.82
2023-04-18T00:06:44.352Z,9.32
2023-04-18T00:09:12.337Z,10.68
2023-04-18T00:11:40.757Z,11.98
2023-04-18T00:14:10.418Z,13.95
2023-04-18T00:16:39.076Z,11.60
2023-04-18T00:19:08.649Z,11.38
2023-04-18T00:21:37.249Z,9.13
2023-04-18T00:24:07.036Z,12.02
2023-04-18T00:26:34.945Z,10.05
2023-04-18T00:29:05.675Z,11.00
2023-04-18T00:31:36.423Z,11.85
2023-04-18T00:34:04.390Z,12.40
2023-04-18T00:36:32.299Z,10.57
2023-04-18T00:39:00.230Z,9.52
2023-04-18T00:41:31.278Z,10.23
2023-04-18T00:43:59.525Z,9.23
2023-04-18T00:46:27.488Z,10.75
2023-04-18T00:48:55.671Z,10.43
2023-04-18T00:51:23.674Z,9.73
2023-04-18T00:53:52.149Z,11.55
2023-04-18T00:56:20.437Z,9.52
2023-04-18T00:58:49.826Z,8.10
2023-04-18T01:01:19.519Z,10.05
2023-04-18T01:03:47.491Z,9.95
2023-04-18T01:06:16.562Z,10.57
2023-04-18T01:08:46.180Z,9.65
2023-04-18T01:11:14.253Z,11.15
2023-04-18T01:13:42.225Z,11.20
2023-04-18T01:16:11.837Z,10.35
2023-04-18T01:18:40.176Z,9.68
2023-04-18T01:21:09.947Z,11.02
2023-04-18T01:23:38.106Z,10.70
2023-04-18T01:26:08.545Z,9.50
2023-04-18T01:28:38.185Z,11.27
2023-04-18T01:31:06.580Z,9.57
2023-04-18T01:33:38.101Z,11.32
2023-04-18T01:36:06.666Z,8.98
2023-04-18T01:38:34.657Z,10.95
2023-04-18T01:41:03.401Z,10.57
2023-04-18T01:43:32.785Z,10.88
2023-04-18T01:46:00.702Z,9.02
2023-04-18T01:48:29.573Z,10.50
2023-04-18T01:50:57.531Z,10.88
2023-04-18T01:53:25.642Z,11.27
2023-04-18T01:55:53.609Z,9.65
2023-04-18T01:58:23.673Z,11.27
2023-04-18T02:00:54.663Z,10.93
2023-04-18T02:03:22.947Z,11.00
2023-04-18T02:05:51.413Z,11.30
2023-04-18T02:08:19.716Z,12.52
2023-04-18T02:10:47.846Z,14.48
2023-04-18T02:13:16.136Z,11.20
2023-04-18T02:15:45.178Z,10.23
2023-04-18T02:18:18.269Z,10.18
2023-04-18T02:20:48.801Z,12.45
2023-04-18T02:23:17.085Z,16.88
2023-04-18T02:25:45.269Z,8.18
2023-04-18T02:28:13.255Z,7.80
2023-04-18T02:30:41.398Z,10.75
2023-04-18T02:33:09.433Z,10.00
2023-04-18T02:35:39.877Z,8.18
2023-04-18T02:38:07.875Z,10.65
2023-04-18T02:40:35.735Z,9.07
2023-04-18T02:43:03.748Z,10.30
2023-04-18T02:45:32.755Z,9.27
2023-04-18T02:48:02.518Z,11.93
2023-04-18T02:50:30.781Z,12.20
2023-04-18T02:53:00.651Z,9.02
2023-04-18T02:55:39.179Z,10.25
2023-04-18T02:58:07.269Z,9.77
2023-04-18T03:01:01.134Z,11.30
2023-04-18T03:03:47.798Z,10.80
2023-04-18T03:06:29.577Z,8.98
2023-04-18T03:09:00.134Z,11.13
2023-04-18T03:11:28.540Z,9.65
2023-04-18T03:13:56.951Z,9.60
2023-04-18T03:16:28.313Z,8.70
2023-04-18T03:18:56.175Z,9.20
2023-04-18T03:21:24.618Z,9.55
2023-04-18T03:23:53.041Z,6.80
2023-04-18T03:26:25.236Z,8.88
2023-04-18T03:28:54.572Z,10.93
2023-04-18T03:31:22.777Z,9.25
2023-04-18T03:33:51.655Z,11.30
2023-04-18T03:36:25.170Z,9.45
2023-04-18T03:38:55.415Z,7.65
2023-04-18T03:41:26.209Z,8.85
2023-04-18T03:43:55.920Z,8.05
2023-04-18T03:46:24.594Z,9.35
2023-04-18T03:48:55.174Z,11.35
2023-04-18T03:51:23.280Z,10.77
2023-04-18T03:53:51.330Z,10.18
2023-04-18T03:56:19.576Z,10.48
2023-04-18T03:58:54.102Z,9.18
2023-04-18T04:01:23.402Z,9.60
2023-04-18T04:03:53.523Z,10.80
2023-04-18T04:06:21.822Z,10.40
2023-04-18T04:08:49.736Z,9.18
2023-04-18T04:11:22.774Z,11.20
2023-04-18T04:13:51.095Z,9.90
2023-04-18T04:16:24.540Z,9.18
2023-04-18T04:18:54.241Z,10.10
2023-04-18T04:21:27.112Z,9.13
2023-04-18T04:23:55.271Z,10.40
2023-04-18T04:26:31.745Z,12.27
2023-04-18T04:29:08.048Z,10.10
2023-04-18T04:31:38.959Z,8.07
2023-04-18T04:34:08.763Z,10.82
2023-04-18T04:36:39.691Z,10.63
2023-04-18T04:39:08.648Z,9.35
2023-04-18T04:42:04.310Z,11.90
2023-04-18T04:44:41.574Z,10.35
2023-04-18T04:47:11.569Z,11.07
2023-04-18T04:49:40.807Z,9.98
2023-04-18T04:52:09.077Z,12.43
2023-04-18T04:54:37.285Z,12.52
2023-04-18T04:57:08.032Z,9.15
2023-04-18T04:59:36.565Z,11.60
2023-04-18T05:02:04.785Z,10.63
2023-04-18T05:04:34.361Z,10.75
2023-04-18T05:07:02.428Z,10.65
2023-04-18T05:09:30.410Z,12.52
2023-04-18T05:12:01.858Z,11.35
2023-04-18T05:14:31.053Z,17.05
2023-04-18T05:16:59.159Z,11.60
2023-04-18T05:19:27.250Z,9.65
2023-04-18T05:21:57.207Z,12.10
2023-04-18T05:24:25.187Z,10.07
2023-04-18T05:26:53.531Z,12.40
2023-04-18T05:29:21.507Z,10.40
2023-04-18T05:31:49.402Z,11.20
2023-04-18T05:34:17.640Z,12.45
2023-04-18T05:36:47.666Z,12.50
2023-04-18T05:39:17.078Z,11.40
2023-04-18T05:41:45.067Z,12.75
2023-04-18T05:44:13.101Z,12.13
2023-04-18T05:46:41.147Z,13.40
2023-04-18T05:49:09.590Z,14.63
2023-04-18T05:51:37.794Z,12.93
2023-04-18T05:54:05.984Z,12.65
2023-04-18T05:56:35.547Z,14.93
2023-04-18T05:59:03.586Z,13.30
2023-04-18T06:01:32.480Z,13.48
2023-04-18T06:04:00.608Z,10.63
2023-04-18T06:06:28.998Z,11.15
2023-04-18T06:08:56.967Z,9.73
2023-04-18T06:11:24.941Z,11.05
2023-04-18T06:13:55.902Z,11.00
2023-04-18T06:16:24.182Z,12.07
2023-04-18T06:18:52.242Z,12.48
2023-04-18T06:21:21.314Z,9.77
2023-04-18T06:23:51.241Z,11.65
2023-04-18T06:26:19.274Z,8.77
2023-04-18T06:28:47.425Z,11.38
2023-04-18T06:31:16.768Z,7.25
2023-04-18T06:33:44.778Z,11.57
2023-04-18T06:36:12.929Z,14.75
2023-04-18T06:38:40.810Z,10.77
2023-04-18T06:41:08.954Z,9.35
2023-04-18T06:43:36.870Z,9.63
2023-04-18T06:46:06.083Z,10.15
2023-04-18T06:48:35.752Z,8.23
2023-04-18T06:51:04.068Z,12.68
2023-04-18T06:53:32.166Z,9.60
2023-04-18T06:56:00.499Z,10.07
2023-04-18T06:58:28.637Z,9.80
2023-04-18T07:00:56.593Z,10.45
2023-04-18T07:03:24.991Z,8.70
2023-04-18T07:05:55.551Z,11.60
2023-04-18T07:08:23.588Z,8.68
2023-04-18T07:10:51.623Z,9.65
2023-04-18T07:13:19.674Z,10.45
2023-04-18T07:15:47.803Z,10.55
2023-04-18T07:18:23.344Z,9.00
2023-04-18T07:20:59.946Z,6.68
2023-04-18T07:23:27.965Z,10.02
2023-04-18T07:25:55.982Z,10.05
2023-04-18T07:28:24.155Z,9.55
2023-04-18T07:30:54.773Z,15.25
2023-04-18T07:33:22.875Z,10.63
2023-04-18T07:35:52.924Z,16.85
2023-04-18T07:38:22.394Z,11.80
2023-04-18T07:40:57.769Z,9.07
2023-04-18T07:43:25.742Z,13.02
2023-04-18T07:45:56.283Z,11.88
2023-04-18T07:48:25.218Z,7.40
2023-04-18T07:50:53.267Z,8.65
2023-04-18T07:53:22.793Z,7.43
2023-04-18T07:55:51.244Z,13.88
2023-04-18T07:58:19.220Z,8.77
2023-04-18T08:00:47.428Z,7.70
2023-04-18T08:03:16.377Z,7.95
2023-04-18T08:05:44.476Z,10.05
2023-04-18T08:08:13.329Z,9.02
2023-04-18T08:10:42.803Z,8.40
2023-04-18T08:13:13.007Z,10.90
2023-04-18T08:15:40.981Z,10.55
2023-04-18T08:18:09.042Z,9.93
2023-04-18T08:20:37.273Z,8.05
2023-04-18T08:23:08.698Z,8.57
2023-04-18T08:25:39.773Z,10.50
2023-04-18T08:28:09.577Z,8.23
2023-04-18T08:30:37.928Z,10.25
2023-04-18T08:33:06.347Z,6.90
2023-04-18T08:35:35.236Z,8.82
2023-04-18T08:38:03.352Z,8.15
2023-04-18T08:40:31.395Z,12.00
2023-04-18T08:43:04.901Z,7.35
2023-04-18T08:45:36.516Z,9.32
2023-04-18T08:48:04.819Z,8.27
2023-04-18T08:50:33.149Z,10.98
2023-04-18T08:53:02.135Z,9.05
2023-04-18T08:55:30.296Z,9.98
2023-04-18T08:57:59.569Z,7.22
2023-04-18T09:00:30.565Z,9.07
2023-04-18T09:03:00.428Z,10.55
2023-04-18T09:05:28.689Z,9.00
2023-04-18T09:07:57.441Z,5.78
2023-04-18T09:10:30.898Z,8.45
2023-04-18T09:13:01.125Z,12.10
2023-04-18T09:15:30.117Z,8.27
2023-04-18T09:18:02.613Z,7.43
2023-04-18T09:20:37.756Z,9.10
2023-04-18T09:23:11.480Z,11.93
2023-04-18T09:25:48.251Z,12.13
2023-04-18T09:28:24.391Z,14.27
2023-04-18T09:30:53.348Z,7.82
2023-04-18T09:33:29.210Z,12.10
2023-04-18T09:36:00.207Z,17.90
2023-04-18T09:38:40.330Z,8.05
2023-04-18T09:41:09.056Z,8.90
2023-04-18T09:43:38.253Z,9.23
2023-04-18T09:46:15.435Z,9.77
2023-04-18T09:48:44.915Z,9.02
2023-04-18T09:51:20.176Z,8.75
2023-04-18T09:54:03.395Z,7.45
2023-04-18T09:59:49.381Z,6.43
2023-04-18T10:02:26.763Z,7.78
2023-04-18T10:04:57.369Z,8.98
2023-04-18T10:07:27.168Z,7.22
2023-04-18T10:09:55.064Z,9.50
2023-04-18T10:12:24.285Z,8.50
2023-04-18T10:14:52.577Z,8.77
2023-04-18T10:17:21.561Z,9.10
2023-04-18T10:20:08.449Z,7.38
2023-04-18T10:22:36.667Z,7.95
2023-04-18T10:25:05.119Z,12.15
2023-04-18T10:28:00.075Z,9.73
2023-04-18T10:33:33.581Z,9.50
2023-04-18T10:36:14.880Z,7.28
2023-04-18T10:38:47.497Z,8.20
2023-04-18T10:41:17.851Z,8.50
2023-04-18T10:44:19.187Z,7.07
2023-04-18T10:47:21.827Z,7.68
2023-04-18T10:50:06.329Z,7.80
2023-04-18T10:55:14.109Z,11.10
2023-04-18T10:57:44.464Z,11.90
2023-04-18T11:00:17.220Z,7.88
2023-04-18T11:02:57.612Z,7.68
2023-04-18T11:05:28.801Z,7.72
2023-04-18T11:07:58.367Z,8.20
2023-04-18T11:10:27.793Z,9.50
2023-04-18T11:12:57.306Z,7.65
2023-04-18T11:15:27.532Z,9.15
2023-04-18T11:18:04.006Z,8.85
2023-04-18T11:20:39.581Z,10.25
2023-04-18T11:23:17.065Z,7.22
2023-04-18T11:25:45.815Z,7.60
2023-04-18T11:28:13.883Z,7.80
2023-04-18T11:30:42.926Z,9.13
2023-04-18T11:33:12.398Z,8.15
2023-04-18T11:35:41.080Z,8.63
2023-04-18T11:38:12.911Z,7.93
2023-04-18T11:40:47.982Z,8.15
2023-04-18T11:43:21.861Z,8.85
2023-04-18T11:45:56.913Z,9.13
2023-04-18T11:48:25.011Z,7.90
2023-04-18T11:50:53.127Z,8.32
2023-04-18T11:53:34.911Z,6.72
2023-04-18T11:56:03.748Z,7.20
2023-04-18T11:58:32.889Z,8.80
2023-04-18T12:01:01.721Z,7.30
2023-04-18T12:03:30.297Z,10.80
2023-04-18T12:06:01.647Z,7.68
2023-04-18T12:08:33.742Z,9.90
2023-04-18T12:11:01.754Z,8.50
2023-04-18T12:13:34.475Z,7.25
2023-04-18T12:16:03.147Z,8.10
2023-04-18T12:18:31.385Z,8.35
2023-04-18T12:21:02.193Z,9.00
2023-04-18T12:23:32.038Z,8.73
2023-04-18T12:26:03.126Z,9.00
2023-04-18T12:28:32.103Z,9.30
2023-04-18T12:31:00.491Z,10.05
2023-04-18T12:33:30.589Z,11.93
2023-04-18T12:36:00.751Z,10.23
2023-04-18T12:38:28.808Z,12.05
2023-04-18T12:40:56.862Z,8.65
2023-04-18T12:43:26.783Z,8.43
2023-04-18T12:45:55.073Z,9.82
2023-04-18T12:48:23.157Z,7.10
2023-04-18T12:50:51.338Z,10.52
2023-04-18T12:53:19.332Z,8.63
2023-04-18T12:55:47.369Z,8.90
2023-04-18T12:58:18.505Z,8.05
2023-04-18T13:00:48.069Z,8.52
2023-04-18T13:03:16.388Z,9.30
2023-04-18T13:05:44.627Z,10.75
2023-04-18T13:08:17.700Z,10.40
2023-04-18T13:10:46.103Z,8.25
2023-04-18T13:13:14.240Z,7.45
2023-04-18T13:15:42.544Z,8.25
2023-04-18T13:18:11.978Z,10.77
2023-04-18T13:20:39.982Z,10.18
2023-04-18T13:23:07.959Z,10.20
2023-04-18T13:25:36.021Z,7.78
2023-04-18T13:28:04.016Z,11.95
2023-04-18T13:30:32.109Z,8.80
2023-04-18T13:33:00.144Z,9.95
2023-04-18T13:35:29.729Z,8.60
2023-04-18T13:37:57.796Z,10.32
2023-04-18T13:40:26.454Z,7.97
2023-04-18T13:42:54.616Z,9.68
2023-04-18T13:45:22.971Z,11.30
2023-04-18T13:47:51.286Z,13.05
2023-04-18T13:50:20.288Z,7.97
2023-04-18T13:52:51.764Z,7.38
2023-04-18T13:55:19.852Z,8.05
2023-04-18T13:57:47.956Z,12.35
2023-04-18T14:00:16.961Z,12.50
2023-04-18T14:02:45.337Z,5.63
2023-04-18T14:05:13.452Z,7.28
2023-04-18T14:07:41.612Z,6.53
2023-04-18T14:10:12.258Z,8.60
2023-04-18T14:12:40.331Z,6.68
2023-04-18T14:15:09.799Z,6.20
2023-04-18T14:17:37.917Z,7.07
2023-04-18T14:20:07.777Z,7.65
2023-04-18T14:22:35.723Z,6.18
2023-04-18T14:25:03.892Z,7.88
2023-04-18T14:27:33.335Z,9.18
2023-04-18T14:30:01.294Z,6.88
2023-04-18T14:32:29.223Z,6.78
2023-04-18T14:34:58.753Z,7.70
2023-04-18T14:37:29.208Z,5.97
2023-04-18T14:39:57.250Z,8.30
2023-04-18T14:42:25.354Z,7.32
2023-04-18T14:44:55.364Z,7.82
2023-04-18T14:47:24.404Z,5.72
2023-04-18T14:49:52.514Z,6.60
2023-04-18T14:52:20.427Z,6.57
2023-04-18T14:54:48.486Z,7.18
2023-04-18T14:57:16.525Z,8.80
2023-04-18T14:59:44.492Z,9.32
2023-04-18T15:02:15.143Z,8.50
2023-04-18T15:04:48.206Z,8.73
2023-04-18T15:07:16.331Z,8.25
2023-04-18T15:09:44.305Z,7.50
2023-04-18T15:12:12.451Z,5.75
2023-04-18T15:14:42.144Z,5.80
2023-04-18T15:17:10.258Z,5.85
2023-04-18T15:19:42.129Z,4.78
2023-04-18T15:22:12.764Z,5.57
2023-04-18T15:24:41.250Z,8.10
2023-04-18T15:27:09.516Z,7.10
2023-04-18T15:29:38.246Z,7.50
2023-04-18T15:32:06.528Z,5.60
2023-04-18T15:34:34.731Z,6.13
2023-04-18T15:37:04.471Z,7.70
2023-04-18T15:39:34.444Z,9.77
2023-04-18T15:42:05.021Z,4.70
2023-04-18T15:44:33.288Z,4.13
2023-04-18T15:47:01.861Z,4.15
2023-04-18T15:49:30.466Z,3.00
2023-04-18T15:51:58.608Z,5.60
2023-04-18T15:54:27.932Z,7.72
2023-04-18T15:56:56.117Z,2.72
2023-04-18T15:59:24.553Z,11.85
2023-04-18T16:01:52.792Z,4.22
2023-04-18T16:04:21.107Z,7.18
2023-04-18T16:06:49.196Z,4.63
2023-04-18T16:09:17.200Z,4.57
2023-04-18T16:11:46.801Z,3.13
2023-04-18T16:14:15.066Z,4.35
2023-04-18T16:16:46.535Z,5.05
2023-04-18T16:19:14.975Z,2.90
2023-04-18T16:21:43.105Z,5.40
2023-04-18T16:24:11.347Z,3.95
2023-04-18T16:26:39.474Z,6.38
2023-04-18T16:29:08.902Z,5.10
2023-04-18T16:31:37.110Z,4.25
2023-04-18T16:34:05.280Z,3.30
2023-04-18T16:36:34.723Z,3.03
2023-04-18T16:39:02.777Z,3.35
2023-04-18T16:41:30.650Z,3.95
2023-04-18T16:43:58.656Z,2.88
2023-04-18T16:46:31.278Z,7.57
2023-04-18T16:49:01.369Z,3.30
2023-04-18T16:51:29.797Z,3.00
2023-04-18T16:53:57.912Z,3.35
2023-04-18T16:56:26.653Z,5.00
2023-04-18T16:58:54.909Z,8.35
2023-04-18T17:01:23.013Z,3.30
2023-04-18T17:03:52.527Z,4.15
2023-04-18T17:06:22.658Z,4.90
2023-04-18T17:08:53.348Z,4.68
2023-04-18T17:11:21.694Z,3.55
2023-04-18T17:13:51.219Z,6.35
2023-04-18T17:16:19.480Z,3.72
2023-04-18T17:18:47.405Z,4.18
2023-04-18T17:21:16.951Z,3.40
2023-04-18T17:23:44.982Z,3.55
2023-04-18T17:26:13.497Z,3.25
2023-04-18T17:28:41.631Z,3.35
2023-04-18T17:31:10.424Z,4.63
2023-04-18T17:33:38.749Z,2.65
2023-04-18T17:36:07.252Z,3.35
2023-04-18T17:38:36.650Z,3.17
2023-04-18T17:41:05.688Z,5.18
2023-04-18T17:43:33.861Z,3.05
2023-04-18T17:46:03.619Z,3.25
2023-04-18T17:48:31.942Z,4.75
2023-04-18T17:50:59.921Z,6.30
2023-04-18T17:53:28.818Z,3.88
2023-04-18T17:55:59.770Z,2.58
2023-04-18T17:58:28.129Z,2.83
2023-04-18T18:00:56.399Z,6.50
2023-04-18T18:03:24.898Z,7.80
2023-04-18T18:05:54.930Z,2.55
2023-04-18T18:08:23.114Z,4.53
2023-04-18T18:10:51.314Z,3.22
2023-04-18T18:13:20.764Z,4.80
2023-04-18T18:15:49.007Z,3.83
2023-04-18T18:18:29.747Z,3.65
2023-04-18T18:20:58.217Z,4.28
2023-04-18T18:23:26.579Z,4.00
2023-04-18T18:25:54.731Z,4.20
2023-04-18T18:30:52.421Z,8.85
2023-04-18T18:33:20.472Z,5.70
2023-04-18T18:35:48.474Z,5.85
2023-04-18T18:38:16.519Z,4.00
2023-04-18T18:40:44.613Z,4.88
2023-04-18T18:43:12.973Z,3.58
2023-04-18T18:45:42.391Z,2.83
2023-04-18T18:48:10.570Z,3.42
2023-04-18T18:50:38.546Z,4.53
2023-04-18T18:53:07.636Z,2.72
2023-04-18T18:55:36.532Z,5.30
2023-04-18T18:58:07.761Z,5.03
2023-04-18T19:00:35.893Z,5.88
2023-04-18T19:03:05.630Z,5.20
2023-04-18T19:05:34.075Z,4.13
2023-04-18T19:08:03.969Z,7.78
2023-04-18T19:10:32.222Z,19.60
2023-04-18T19:13:03.688Z,6.88
2023-04-18T19:15:31.901Z,13.77
2023-04-18T19:18:01.251Z,4.10
2023-04-18T19:20:31.379Z,3.78
2023-04-18T19:23:00.148Z,3.55
2023-04-18T19:25:28.339Z,3.13
2023-04-18T19:27:56.616Z,3.78
2023-04-18T19:30:25.125Z,3.58
2023-04-18T19:32:53.859Z,4.13
2023-04-18T19:35:22.170Z,14.43
2023-04-18T19:37:52.225Z,7.90
2023-04-18T19:40:20.739Z,6.03
2023-04-18T19:42:48.876Z,4.28
2023-04-18T19:45:17.866Z,5.70
2023-04-18T19:47:47.869Z,5.03
2023-04-18T19:50:17.125Z,4.20
2023-04-18T19:52:45.325Z,6.70
2023-04-18T19:55:15.255Z,4.50
2023-04-18T19:57:44.743Z,4.75
2023-04-18T20:00:14.700Z,5.97
2023-04-18T20:02:43.751Z,7.40
2023-04-18T20:05:12.890Z,5.68
2023-04-18T20:07:41.562Z,9.57
2023-04-18T20:10:10.869Z,5.70
2023-04-18T20:12:40.694Z,8.85
2023-04-18T20:15:10.050Z,5.15
2023-04-18T20:17:38.737Z,6.90
2023-04-18T20:20:10.654Z,29.38
2023-04-18T20:22:40.301Z,4.70
2023-04-18T20:25:08.902Z,5.88
2023-04-18T20:27:36.954Z,5.10
2023-04-18T20:30:08.509Z,5.53
2023-04-18T20:32:37.035Z,3.42
2023-04-18T20:35:05.915Z,2.75
2023-04-18T20:37:36.701Z,5.20
2023-04-18T20:40:08.048Z,6.45
2023-04-18T20:42:36.760Z,3.95
2023-04-18T20:45:10.857Z,5.60
2023-04-18T20:47:41.240Z,3.35
2023-04-18T20:50:10.515Z,7.75
2023-04-18T20:52:38.664Z,8.30
2023-04-18T20:55:07.480Z,5.55
2023-04-18T20:57:36.302Z,6.22
2023-04-18T21:00:07.214Z,4.88
2023-04-18T21:02:35.360Z,4.47
2023-04-18T21:05:03.714Z,5.05
2023-04-18T21:07:32.142Z,5.13
2023-04-18T21:10:00.091Z,4.57
2023-04-18T21:12:28.255Z,5.80
2023-04-18T21:14:56.277Z,3.78
2023-04-18T21:17:25.884Z,4.57
2023-04-18T21:19:53.932Z,5.45
2023-04-18T21:22:21.877Z,6.85
2023-04-18T21:24:49.886Z,3.15
2023-04-18T21:27:17.861Z,6.30
2023-04-18T21:29:45.955Z,5.32
2023-04-18T21:32:13.947Z,5.43
2023-04-18T21:34:43.444Z,4.10
2023-04-18T21:37:11.448Z,6.35
2023-04-18T21:39:39.414Z,7.90
2023-04-18T21:42:07.416Z,5.97
2023-04-18T21:44:35.531Z,4.72
2023-04-18T21:47:03.449Z,5.53
2023-04-18T21:49:31.448Z,5.55
2023-04-18T21:52:01.254Z,6.00
2023-04-18T21:54:29.198Z,6.85
2023-04-18T21:56:57.128Z,6.60
2023-04-18T21:59:25.145Z,8.65
2023-04-18T22:01:53.154Z,5.85
2023-04-18T22:04:23.753Z,6.93
2023-04-18T22:06:54.042Z,5.05
2023-04-18T22:09:23.492Z,9.35
2023-04-18T22:11:51.822Z,4.20
2023-04-18T22:14:19.992Z,5.82
2023-04-18T22:16:50.147Z,5.05
2023-04-18T22:19:19.115Z,9.05
2023-04-18T22:21:47.116Z,4.45
2023-04-18T22:24:15.171Z,7.15
2023-04-18T22:26:44.735Z,8.00
2023-04-18T22:29:12.710Z,8.77
2023-04-18T22:31:40.685Z,4.35
2023-04-18T22:34:08.557Z,4.97
2023-04-18T22:36:37.520Z,5.50
2023-04-18T22:39:06.155Z,7.97
2023-04-18T22:41:34.052Z,5.15
2023-04-18T22:44:03.369Z,5.70
2023-04-18T22:46:32.753Z,5.40
2023-04-18T22:49:00.836Z,5.60
2023-04-18T22:51:28.975Z,4.63
2023-04-18T22:53:56.950Z,4.50
2023-04-18T22:56:24.879Z,4.28
2023-04-18T22:58:52.754Z,4.90
2023-04-18T23:01:22.157Z,7.03
2023-04-18T23:03:50.306Z,5.25
2023-04-18T23:06:18.506Z,5.20
2023-04-18T23:08:46.545Z,4.18
2023-04-18T23:11:14.739Z,4.57
2023-04-18T23:13:42.833Z,3.45
2023-04-18T23:16:10.945Z,4.65
2023-04-18T23:18:40.327Z,6.93
2023-04-18T23:21:08.489Z,5.50
2023-04-18T23:23:36.458Z,3.42
2023-04-18T23:26:05.010Z,4.40
2023-04-18T23:28:33.942Z,4.78
2023-04-18T23:31:02.143Z,2.67
2023-04-18T23:33:31.117Z,4.30
2023-04-18T23:36:00.835Z,5.07
2023-04-18T23:38:28.906Z,3.55
2023-04-18T23:40:56.982Z,3.78
2023-04-18T23:43:24.990Z,2.25
2023-04-18T23:45:53.571Z,3.10
2023-04-18T23:48:25.168Z,3.53
2023-04-18T23:50:54.341Z,3.40
2023-04-18T23:53:24.786Z,2.88
2023-04-18T23:55:54.349Z,7.82
2023-04-18T23:58:22.495Z,3.22
